createdAt,value
2018-10-11T00:01:05.990Z,24.70
2018-10-11T00:03:41.613Z,22.50
2018-10-11T00:06:17.004Z,24.50
2018-10-11T00:08:52.483Z,23.50
2018-10-11T00:11:27.833Z,23.10
2018-10-11T00:14:03.341Z,23.62
2018-10-11T00:16:39.140Z,22.80
2018-10-11T00:19:14.350Z,22.22
2018-10-11T00:21:49.731Z,23.40
2018-10-11T00:24:25.271Z,23.38
2018-10-11T00:27:00.685Z,22.87
2018-10-11T00:29:36.307Z,23.00
2018-10-11T00:32:11.857Z,24.10
2018-10-11T00:34:47.343Z,21.93
2018-10-11T00:37:22.664Z,25.15
2018-10-11T00:39:58.114Z,25.30
2018-10-11T00:42:33.503Z,24.85
2018-10-11T00:45:08.982Z,24.20
2018-10-11T00:47:44.501Z,24.70
2018-10-11T00:50:19.861Z,24.05
2018-10-11T00:52:55.272Z,24.85
2018-10-11T00:55:30.664Z,25.70
2018-10-11T00:58:06.696Z,27.07
2018-10-11T01:00:42.264Z,23.73
2018-10-11T01:03:17.701Z,24.30
2018-10-11T01:05:53.380Z,23.92
2018-10-11T01:08:28.771Z,27.17
2018-10-11T01:11:04.211Z,25.37
2018-10-11T01:13:40.062Z,26.30
2018-10-11T01:16:15.430Z,26.85
2018-10-11T01:18:50.961Z,25.72
2018-10-11T01:21:26.790Z,26.93
2018-10-11T01:24:02.461Z,27.60
2018-10-11T01:26:37.901Z,27.75
2018-10-11T01:29:13.254Z,26.42
2018-10-11T01:31:48.624Z,23.60
2018-10-11T01:34:24.008Z,27.58
2018-10-11T01:36:59.720Z,26.60
2018-10-11T01:39:35.349Z,27.80
2018-10-11T01:42:10.781Z,26.42
2018-10-11T01:44:46.216Z,26.17
2018-10-11T01:47:21.697Z,29.07
2018-10-11T01:49:57.075Z,27.13
2018-10-11T01:52:32.491Z,27.07
2018-10-11T01:55:08.104Z,28.95
2018-10-11T01:57:43.633Z,27.80
2018-10-11T02:00:19.215Z,27.90
2018-10-11T02:02:55.821Z,28.35
2018-10-11T02:05:31.223Z,29.52
2018-10-11T02:08:06.762Z,31.12
2018-10-11T02:10:42.306Z,32.03
2018-10-11T02:13:17.830Z,32.33
2018-10-11T02:15:53.151Z,30.70
2018-10-11T02:18:28.655Z,29.05
2018-10-11T02:21:04.163Z,28.83
2018-10-11T02:23:39.564Z,29.23
2018-10-11T02:26:15.271Z,29.75
2018-10-11T02:28:50.756Z,32.10
2018-10-11T02:31:26.346Z,29.70
2018-10-11T02:34:01.682Z,31.07
2018-10-11T02:36:37.135Z,31.30
2018-10-11T02:39:12.614Z,33.33
2018-10-11T02:41:48.141Z,32.98
2018-10-11T02:44:23.392Z,33.42
2018-10-11T02:46:58.804Z,33.58
2018-10-11T02:49:34.564Z,33.88
2018-10-11T02:52:10.181Z,34.88
2018-10-11T02:54:45.603Z,32.90
2018-10-11T02:57:32.148Z,32.90
2018-10-11T03:00:07.924Z,32.60
2018-10-11T03:02:45.414Z,33.88
2018-10-11T03:05:20.781Z,32.65
2018-10-11T03:07:56.324Z,33.70
2018-10-11T03:10:32.054Z,32.83
2018-10-11T03:13:11.041Z,34.18
2018-10-11T03:15:46.631Z,35.45
2018-10-11T03:18:22.144Z,35.10
2018-10-11T03:20:57.705Z,35.78
2018-10-11T03:23:33.255Z,32.75
2018-10-11T03:26:08.815Z,35.43
2018-10-11T03:28:44.355Z,34.10
2018-10-11T03:31:19.896Z,32.88
2018-10-11T03:33:55.205Z,35.05
2018-10-11T03:36:30.741Z,34.15
2018-10-11T03:39:07.378Z,33.60
2018-10-11T03:41:42.802Z,34.98
2018-10-11T03:44:18.257Z,33.28
2018-10-11T03:46:53.482Z,37.05
2018-10-11T03:49:28.807Z,33.35
2018-10-11T03:52:04.552Z,34.80
2018-10-11T03:54:40.125Z,34.18
2018-10-11T03:57:15.771Z,33.60
2018-10-11T03:59:51.135Z,34.70
2018-10-11T04:02:26.429Z,34.80
2018-10-11T04:05:01.798Z,34.70
2018-10-11T04:07:36.948Z,34.67
2018-10-11T04:10:12.386Z,32.53
2018-10-11T04:12:47.871Z,34.70
2018-10-11T04:15:23.360Z,35.28
2018-10-11T04:17:58.785Z,34.23
2018-10-11T04:20:34.282Z,36.40
2018-10-11T04:23:14.004Z,35.35
2018-10-11T04:25:49.564Z,35.30
2018-10-11T04:28:25.784Z,35.20
2018-10-11T04:31:01.030Z,37.20
2018-10-11T04:33:36.381Z,33.13
2018-10-11T04:36:11.984Z,34.90
2018-10-11T04:38:47.477Z,35.88
2018-10-11T04:41:22.756Z,34.95
2018-10-11T04:43:58.287Z,35.13
2018-10-11T04:46:33.733Z,33.78
2018-10-11T04:49:09.344Z,35.08
2018-10-11T04:51:44.859Z,34.73
2018-10-11T04:54:20.144Z,35.05
2018-10-11T04:56:55.525Z,35.90
2018-10-11T04:59:30.864Z,39.10
2018-10-11T05:02:06.294Z,35.17
2018-10-11T05:04:41.801Z,35.25
2018-10-11T05:07:17.082Z,33.90
2018-10-11T05:09:52.607Z,36.48
2018-10-11T05:12:28.311Z,36.33
2018-10-11T05:15:03.993Z,36.15
2018-10-11T05:17:39.625Z,35.70
2018-10-11T05:20:15.252Z,35.20
2018-10-11T05:22:50.746Z,36.10
2018-10-11T05:25:26.361Z,35.10
2018-10-11T05:28:01.715Z,35.83
2018-10-11T05:30:42.984Z,34.18
2018-10-11T05:33:18.779Z,36.40
2018-10-11T05:35:54.503Z,31.45
2018-10-11T05:38:30.023Z,35.90
2018-10-11T05:41:05.420Z,35.30
2018-10-11T05:43:40.833Z,34.23
2018-10-11T05:46:23.978Z,34.03
2018-10-11T05:49:00.454Z,35.80
2018-10-11T05:51:35.964Z,33.83
2018-10-11T05:54:11.626Z,35.33
2018-10-11T05:56:47.317Z,33.35
2018-10-11T05:59:22.800Z,35.95
2018-10-11T06:01:58.348Z,33.65
2018-10-11T06:04:34.028Z,34.03
2018-10-11T06:07:09.863Z,32.48
2018-10-11T06:09:45.470Z,32.55
2018-10-11T06:12:21.274Z,32.75
2018-10-11T06:14:56.665Z,36.55
2018-10-11T06:17:32.274Z,34.33
2018-10-11T06:20:07.772Z,35.20
2018-10-11T06:22:43.341Z,33.00
2018-10-11T06:25:18.881Z,34.85
2018-10-11T06:27:54.453Z,34.25
2018-10-11T06:30:31.135Z,33.45
2018-10-11T06:33:06.531Z,34.43
2018-10-11T06:35:42.064Z,33.50
2018-10-11T06:38:17.414Z,33.85
2018-10-11T06:40:52.870Z,33.95
2018-10-11T06:43:28.352Z,33.80
2018-10-11T06:46:04.102Z,33.30
2018-10-11T06:48:39.783Z,33.38
2018-10-11T06:51:15.396Z,31.55
2018-10-11T06:53:51.684Z,34.67
2018-10-11T06:56:27.014Z,30.57
2018-10-11T06:59:02.531Z,32.55
2018-10-11T07:01:38.881Z,29.80
2018-10-11T07:04:14.559Z,32.15
2018-10-11T07:06:49.802Z,32.58
2018-10-11T07:09:25.163Z,33.10
2018-10-11T07:12:00.513Z,31.82
2018-10-11T07:14:35.794Z,33.18
2018-10-11T07:17:11.184Z,32.20
2018-10-11T07:19:46.793Z,30.50
2018-10-11T07:22:22.109Z,31.95
2018-10-11T07:24:57.931Z,30.02
2018-10-11T07:27:33.714Z,31.02
2018-10-11T07:30:09.333Z,30.08
2018-10-11T07:32:45.131Z,29.85
2018-10-11T07:35:20.508Z,29.72
2018-10-11T07:37:55.784Z,30.05
2018-10-11T07:40:31.238Z,30.92
2018-10-11T07:43:06.580Z,30.48
2018-10-11T07:45:41.891Z,30.82
2018-10-11T07:48:17.466Z,29.37
2018-10-11T07:50:52.872Z,29.92
2018-10-11T07:53:28.327Z,27.87
2018-10-11T07:56:03.894Z,28.65
2018-10-11T07:58:39.776Z,28.83
2018-10-11T08:01:15.330Z,28.62
2018-10-11T08:03:50.994Z,29.00
2018-10-11T08:06:27.035Z,28.95
2018-10-11T08:09:03.023Z,27.52
2018-10-11T08:11:38.588Z,28.90
2018-10-11T08:14:14.185Z,27.52
2018-10-11T08:16:49.713Z,26.65
2018-10-11T08:19:25.152Z,27.70
2018-10-11T08:22:00.575Z,27.02
2018-10-11T08:24:35.989Z,26.23
2018-10-11T08:27:11.440Z,28.65
2018-10-11T08:29:46.824Z,26.80
2018-10-11T08:32:22.271Z,25.32
2018-10-11T08:34:57.524Z,29.00
2018-10-11T08:37:33.051Z,27.85
2018-10-11T08:40:08.338Z,29.20
2018-10-11T08:42:43.563Z,28.45
2018-10-11T08:45:18.904Z,26.37
2018-10-11T08:47:54.133Z,26.95
2018-10-11T08:50:29.678Z,26.70
2018-10-11T08:53:05.101Z,30.23
2018-10-11T08:55:40.447Z,27.50
2018-10-11T08:58:16.131Z,27.70
2018-10-11T09:00:51.632Z,28.23
2018-10-11T09:03:27.672Z,28.00
2018-10-11T09:06:03.062Z,26.75
2018-10-11T09:08:38.692Z,27.37
2018-10-11T09:11:14.174Z,27.25
2018-10-11T09:13:49.662Z,26.85
2018-10-11T09:16:27.555Z,24.70
2018-10-11T09:19:04.388Z,26.00
2018-10-11T09:21:39.571Z,26.00
2018-10-11T09:24:15.058Z,26.05
2018-10-11T09:26:50.588Z,25.35
2018-10-11T09:29:25.931Z,25.60
2018-10-11T09:32:01.365Z,25.37
2018-10-11T09:34:37.022Z,24.55
2018-10-11T09:37:12.584Z,26.50
2018-10-11T09:39:54.555Z,25.83
2018-10-11T09:42:30.013Z,26.10
2018-10-11T09:45:05.566Z,26.10
2018-10-11T09:47:40.901Z,25.13
2018-10-11T09:50:16.266Z,25.67
2018-10-11T09:52:51.703Z,24.90
2018-10-11T09:55:27.284Z,24.47
2018-10-11T09:58:02.582Z,27.13
2018-10-11T10:00:43.103Z,24.73
2018-10-11T10:03:18.478Z,25.43
2018-10-11T10:05:53.740Z,24.53
2018-10-11T10:08:29.366Z,28.50
2018-10-11T10:11:04.910Z,26.43
2018-10-11T10:13:40.553Z,24.07
2018-10-11T10:16:15.995Z,25.90
2018-10-11T10:18:51.512Z,27.60
2018-10-11T10:21:27.409Z,25.53
2018-10-11T10:24:02.625Z,24.57
2018-10-11T10:26:38.156Z,24.00
2018-10-11T10:29:13.515Z,24.20
2018-10-11T10:31:49.143Z,24.33
2018-10-11T10:34:24.521Z,24.97
2018-10-11T10:37:00.293Z,26.07
2018-10-11T10:39:36.052Z,23.80
2018-10-11T10:42:11.573Z,25.03
2018-10-11T10:44:47.134Z,22.30
2018-10-11T10:47:22.583Z,23.30
2018-10-11T10:49:58.021Z,22.40
2018-10-11T10:52:33.566Z,23.23
2018-10-11T10:55:09.140Z,22.70
2018-10-11T10:57:44.429Z,22.50
2018-10-11T11:00:19.994Z,21.90
2018-10-11T11:02:55.623Z,22.33
2018-10-11T11:05:30.977Z,22.80
2018-10-11T11:08:06.402Z,21.80
2018-10-11T11:10:41.807Z,21.30
2018-10-11T11:13:17.176Z,20.43
2018-10-11T11:15:52.621Z,21.73
2018-10-11T11:18:27.983Z,21.80
2018-10-11T11:21:03.222Z,22.13
2018-10-11T11:23:38.572Z,22.30
2018-10-11T11:26:13.912Z,22.83
2018-10-11T11:28:49.593Z,22.17
2018-10-11T11:31:25.100Z,23.13
2018-10-11T11:34:01.010Z,23.13
2018-10-11T11:36:36.644Z,23.03
2018-10-11T11:39:12.164Z,21.57
2018-10-11T11:41:47.721Z,21.40
2018-10-11T11:44:23.167Z,21.50
2018-10-11T11:46:58.575Z,21.93
2018-10-11T11:49:33.954Z,22.03
2018-10-11T11:52:09.571Z,20.50
2018-10-11T11:54:44.951Z,21.17
2018-10-11T11:57:20.474Z,19.77
2018-10-11T11:59:56.134Z,19.70
2018-10-11T12:02:31.521Z,21.17
2018-10-11T12:05:13.300Z,21.23
2018-10-11T12:07:48.934Z,20.43
2018-10-11T12:10:24.575Z,18.70
2018-10-11T12:13:01.814Z,20.53
2018-10-11T12:15:37.960Z,18.83
2018-10-11T12:18:13.354Z,20.90
2018-10-11T12:20:49.010Z,19.40
2018-10-11T12:23:24.452Z,19.03
2018-10-11T12:25:59.818Z,18.67
2018-10-11T12:28:35.467Z,19.70
2018-10-11T12:31:11.078Z,20.03
2018-10-11T12:33:46.501Z,18.80
2018-10-11T12:36:21.907Z,18.10
2018-10-11T12:38:57.274Z,19.93
2018-10-11T12:41:32.640Z,19.40
2018-10-11T12:44:08.183Z,18.00
2018-10-11T12:46:43.724Z,18.40
2018-10-11T12:49:19.019Z,18.70
2018-10-11T12:51:54.269Z,17.50
2018-10-11T12:54:29.591Z,19.80
2018-10-11T12:57:05.123Z,17.40
2018-10-11T12:59:40.391Z,17.37
2018-10-11T13:02:15.780Z,17.20
2018-10-11T13:04:51.254Z,17.17
2018-10-11T13:07:26.608Z,17.40
2018-10-11T13:10:02.105Z,17.70
2018-10-11T13:12:37.673Z,17.87
2018-10-11T13:15:12.981Z,17.40
2018-10-11T13:17:48.661Z,16.87
2018-10-11T13:20:24.034Z,16.67
2018-10-11T13:22:59.581Z,16.83
2018-10-11T13:25:34.871Z,15.57
2018-10-11T13:28:11.629Z,19.27
2018-10-11T13:30:47.212Z,17.43
2018-10-11T13:33:22.701Z,17.67
2018-10-11T13:35:58.080Z,19.13
2018-10-11T13:38:33.433Z,16.80
2018-10-11T13:41:08.966Z,16.37
2018-10-11T13:43:44.632Z,16.87
2018-10-11T13:46:20.525Z,16.47
2018-10-11T13:48:56.383Z,16.83
2018-10-11T13:51:32.382Z,16.37
2018-10-11T13:54:08.718Z,16.40
2018-10-11T13:56:44.344Z,18.20
2018-10-11T13:59:20.253Z,15.70
2018-10-11T14:01:56.097Z,18.03
2018-10-11T14:04:33.944Z,16.60
2018-10-11T14:07:09.894Z,17.00
2018-10-11T14:09:45.571Z,16.47
2018-10-11T14:12:21.455Z,16.10
2018-10-11T14:14:56.932Z,18.33
2018-10-11T14:17:32.342Z,17.17
2018-10-11T14:20:07.931Z,17.50
2018-10-11T14:22:43.580Z,16.77
2018-10-11T14:25:19.033Z,17.10
2018-10-11T14:27:54.621Z,16.90
2018-10-11T14:30:30.125Z,15.93
2018-10-11T14:33:05.793Z,16.53
2018-10-11T14:35:41.173Z,16.70
2018-10-11T14:38:16.457Z,15.93
2018-10-11T14:40:53.306Z,16.63
2018-10-11T14:43:28.774Z,16.43
2018-10-11T14:46:04.081Z,16.70
2018-10-11T14:48:39.340Z,17.17
2018-10-11T14:51:14.904Z,16.40
2018-10-11T14:53:53.993Z,15.53
2018-10-11T14:56:25.703Z,16.57
2018-10-11T14:59:01.111Z,16.90
2018-10-11T15:01:36.363Z,17.63
2018-10-11T15:04:11.844Z,15.83
2018-10-11T15:06:47.230Z,17.33
2018-10-11T15:09:22.733Z,16.23
2018-10-11T15:11:58.093Z,16.90
2018-10-11T15:14:33.520Z,15.67
2018-10-11T15:17:08.865Z,16.37
2018-10-11T15:19:44.754Z,16.60
2018-10-11T15:22:20.336Z,14.90
2018-10-11T15:24:55.840Z,16.17
2018-10-11T15:27:31.340Z,16.20
2018-10-11T15:30:07.473Z,15.97
2018-10-11T15:32:42.908Z,16.60
2018-10-11T15:35:18.488Z,15.43
2018-10-11T15:37:53.805Z,17.27
2018-10-11T15:40:29.275Z,16.13
2018-10-11T15:43:04.490Z,17.03
2018-10-11T15:45:39.830Z,17.83
2018-10-11T15:48:15.514Z,15.87
2018-10-11T15:50:50.677Z,17.00
2018-10-11T15:53:26.382Z,17.00
2018-10-11T15:56:01.626Z,17.13
2018-10-11T15:58:37.282Z,17.50
2018-10-11T16:01:12.716Z,17.77
2018-10-11T16:03:48.054Z,19.10
2018-10-11T16:06:23.461Z,19.10
2018-10-11T16:08:59.050Z,18.20
2018-10-11T16:11:34.156Z,19.37
2018-10-11T16:14:09.193Z,17.70
2018-10-11T16:16:44.632Z,19.30
2018-10-11T16:19:20.224Z,21.17
2018-10-11T16:21:55.766Z,19.60
2018-10-11T16:24:31.305Z,20.47
2018-10-11T16:27:06.909Z,21.10
2018-10-11T16:29:42.405Z,19.67
2018-10-11T16:32:17.461Z,22.33
2018-10-11T16:34:52.917Z,19.10
2018-10-11T16:37:28.415Z,20.63
2018-10-11T16:40:03.730Z,20.60
2018-10-11T16:42:38.947Z,20.33
2018-10-11T16:45:14.310Z,20.57
2018-10-11T16:47:49.630Z,22.10
2018-10-11T16:50:24.899Z,21.37
2018-10-11T16:53:06.797Z,22.30
2018-10-11T16:55:42.212Z,21.60
2018-10-11T16:58:17.823Z,20.75
2018-10-11T17:00:52.949Z,22.40
2018-10-11T17:03:28.395Z,20.08
2018-10-11T17:06:04.000Z,20.80
2018-10-11T17:08:39.678Z,22.50
2018-10-11T17:11:15.026Z,22.90
2018-10-11T17:13:50.435Z,24.10
2018-10-11T17:16:25.795Z,22.32
2018-10-11T17:19:01.214Z,21.70
2018-10-11T17:21:36.916Z,23.52
2018-10-11T17:24:12.411Z,23.25
2018-10-11T17:26:47.989Z,22.15
2018-10-11T17:29:23.322Z,22.27
2018-10-11T17:31:58.673Z,21.82
2018-10-11T17:34:34.109Z,22.20
2018-10-11T17:37:09.381Z,22.37
2018-10-11T17:39:44.541Z,22.90
2018-10-11T17:42:19.981Z,21.50
2018-10-11T17:44:55.348Z,24.65
2018-10-11T17:47:30.630Z,23.90
2018-10-11T17:50:06.275Z,22.35
2018-10-11T17:52:41.813Z,22.62
2018-10-11T17:55:17.314Z,24.57
2018-10-11T17:57:52.666Z,24.67
2018-10-11T18:00:28.262Z,24.85
2018-10-11T18:03:03.726Z,24.37
2018-10-11T18:05:39.354Z,25.20
2018-10-11T18:08:15.094Z,25.97
2018-10-11T18:10:50.511Z,23.92
2018-10-11T18:13:26.133Z,22.90
2018-10-11T18:16:01.606Z,24.57
2018-10-11T18:18:37.137Z,25.15
2018-10-11T18:21:12.731Z,24.55
2018-10-11T18:23:48.206Z,24.60
2018-10-11T18:26:23.764Z,25.60
2018-10-11T18:28:59.232Z,25.25
2018-10-11T18:31:34.686Z,24.43
2018-10-11T18:34:11.007Z,27.58
2018-10-11T18:36:46.472Z,27.13
2018-10-11T18:39:21.752Z,25.23
2018-10-11T18:41:57.604Z,25.37
2018-10-11T18:44:32.767Z,26.10
2018-10-11T18:47:08.414Z,27.45
2018-10-11T18:49:43.814Z,24.32
2018-10-11T18:52:19.341Z,23.55
2018-10-11T18:54:54.975Z,24.72
2018-10-11T18:57:30.521Z,23.35
2018-10-11T19:00:06.474Z,22.40
2018-10-11T19:02:41.902Z,22.67
2018-10-11T19:05:17.262Z,22.35
2018-10-11T19:07:52.688Z,21.55
2018-10-11T19:10:28.131Z,20.32
2018-10-11T19:13:03.583Z,22.37
2018-10-11T19:15:38.811Z,19.77
2018-10-11T19:18:14.169Z,19.75
2018-10-11T19:20:49.655Z,17.42
2018-10-11T19:23:25.104Z,16.70
2018-10-11T19:26:00.826Z,17.20
2018-10-11T19:28:36.585Z,17.55
2018-10-11T19:31:12.045Z,16.93
2018-10-11T19:33:47.486Z,18.95
2018-10-11T19:36:23.058Z,16.95
2018-10-11T19:38:59.309Z,18.37
2018-10-11T19:41:34.681Z,17.42
2018-10-11T19:44:10.704Z,19.27
2018-10-11T19:46:46.297Z,19.52
2018-10-11T19:49:21.834Z,20.35
2018-10-11T19:51:57.371Z,18.95
2018-10-11T19:54:32.898Z,18.90
2018-10-11T19:57:09.887Z,19.95
2018-10-11T19:59:45.127Z,21.15
2018-10-11T20:02:20.689Z,21.55
2018-10-11T20:04:56.157Z,20.32
2018-10-11T20:07:32.399Z,20.27
2018-10-11T20:10:08.975Z,20.27
2018-10-11T20:12:44.724Z,20.35
2018-10-11T20:15:20.289Z,21.00
2018-10-11T20:17:55.683Z,21.30
2018-10-11T20:20:31.528Z,21.15
2018-10-11T20:23:08.173Z,20.27
2018-10-11T20:25:44.909Z,21.35
2018-10-11T20:28:20.423Z,20.92
2018-10-11T20:30:55.983Z,20.15
2018-10-11T20:33:31.340Z,20.27
2018-10-11T20:36:07.097Z,21.00
2018-10-11T20:38:42.412Z,21.30
2018-10-11T20:41:17.771Z,23.62
2018-10-11T20:43:53.142Z,23.07
2018-10-11T20:46:28.361Z,21.85
2018-10-11T20:49:03.944Z,21.55
2018-10-11T20:51:39.200Z,21.50
2018-10-11T20:54:14.714Z,21.80
2018-10-11T20:56:50.270Z,21.27
2018-10-11T20:59:25.822Z,21.85
2018-10-11T21:02:01.317Z,23.65
2018-10-11T21:04:38.126Z,21.68
2018-10-11T21:07:13.697Z,21.02
2018-10-11T21:09:49.033Z,22.30
2018-10-11T21:12:24.331Z,22.02
2018-10-11T21:15:00.624Z,22.10
2018-10-11T21:17:36.184Z,24.52
2018-10-11T21:20:11.639Z,22.37
2018-10-11T21:22:49.890Z,22.27
2018-10-11T21:25:28.664Z,22.22
2018-10-11T21:28:04.434Z,22.82
2018-10-11T21:30:39.703Z,23.98
2018-10-11T21:33:15.179Z,23.92
2018-10-11T21:35:50.825Z,24.50
2018-10-11T21:38:26.331Z,24.07
2018-10-11T21:41:01.901Z,23.67
2018-10-11T21:43:37.381Z,24.47
2018-10-11T21:46:12.941Z,24.35
2018-10-11T21:48:48.358Z,24.37
2018-10-11T21:51:23.670Z,23.80
2018-10-11T21:53:59.141Z,25.15
2018-10-11T21:56:34.664Z,24.82
2018-10-11T21:59:10.366Z,24.23
2018-10-11T22:01:45.652Z,24.70
2018-10-11T22:04:20.953Z,25.08
2018-10-11T22:06:56.274Z,24.07
2018-10-11T22:09:31.723Z,24.07
2018-10-11T22:12:07.653Z,22.85
2018-10-11T22:14:43.114Z,25.08
2018-10-11T22:17:18.541Z,24.72
2018-10-11T22:19:53.883Z,24.60
2018-10-11T22:22:29.313Z,26.12
2018-10-11T22:25:05.004Z,23.75
2018-10-11T22:27:40.603Z,24.12
2018-10-11T22:30:16.101Z,24.18
2018-10-11T22:32:51.512Z,25.35
2018-10-11T22:35:26.786Z,25.90
2018-10-11T22:38:02.272Z,25.48
2018-10-11T22:40:37.664Z,25.77
2018-10-11T22:43:13.093Z,22.50
2018-10-11T22:45:48.361Z,24.37
2018-10-11T22:48:23.553Z,25.43
2018-10-11T22:50:58.661Z,25.08
2018-10-11T22:53:34.115Z,25.70
2018-10-11T22:56:09.382Z,25.88
2018-10-11T22:58:44.928Z,24.30
2018-10-11T23:01:20.728Z,23.40
2018-10-11T23:03:56.235Z,24.67
2018-10-11T23:06:31.751Z,24.23
2018-10-11T23:09:08.097Z,25.45
2018-10-11T23:11:43.703Z,23.45
2018-10-11T23:14:19.243Z,23.55
2018-10-11T23:16:54.794Z,23.27
2018-10-11T23:19:30.091Z,24.55
2018-10-11T23:22:05.450Z,24.00
2018-10-11T23:24:40.690Z,22.22
2018-10-11T23:27:16.012Z,24.05
2018-10-11T23:29:51.400Z,24.85
2018-10-11T23:32:26.790Z,24.57
2018-10-11T23:35:02.173Z,23.22
2018-10-11T23:37:37.601Z,25.40
2018-10-11T23:40:13.294Z,23.07
2018-10-11T23:42:48.901Z,21.33
2018-10-11T23:45:24.261Z,21.10
2018-10-11T23:47:59.501Z,22.17
2018-10-11T23:50:35.030Z,23.15
2018-10-11T23:53:10.463Z,21.37
2018-10-11T23:55:45.926Z,22.50
2018-10-11T23:58:21.540Z,21.80
